Time;durP1;ratioP1;P1;durP2;ratioP2;P2;SDS_P1;SDS_P2;PMS_P1;PMS_P2;Temp;Humidity;BMP_temperature;BMP_pressure;BME280_temperature;BME280_humidity;BME280_pressure;Samples;Min_cycle;Max_cycle;Signal;HPM_P1;HPM_P2
2021/03/19 00:00:46;;;;;;;16.4;9.450001;;;;;;;0.58;100;95124.6;;;;
2021/03/19 00:01:47;;;;;;;16.4;9.450001;;;;;;;0.58;100;95124.6;;;;
2021/03/19 00:02:48;;;;;;;15.35;9.150001;;;;;;;0.54;100;95120.67;;;;
2021/03/19 00:03:50;;;;;;;15.35;9.150001;;;;;;;0.54;100;95120.67;;;;
2021/03/19 00:04:51;;;;;;;15.35;9.150001;;;;;;;0.54;100;95120.67;;;;
2021/03/19 00:05:51;;;;;;;15.35;9.150001;;;;;;;0.54;100;95120.67;;;;
2021/03/19 00:06:52;;;;;;;15.35;9.150001;;;;;;;0.54;100;95120.67;;;;
2021/03/19 00:07:53;;;;;;;15.35;9.150001;;;;;;;0.54;100;95120.67;;;;
2021/03/19 00:08:55;;;;;;;15.35;9.150001;;;;;;;0.54;100;95120.67;;;;
2021/03/19 00:09:56;;;;;;;15.35;9.150001;;;;;;;0.54;100;95120.67;;;;
2021/03/19 00:10:57;;;;;;;15.35;9.150001;;;;;;;0.54;100;95120.67;;;;
2021/03/19 00:11:58;;;;;;;15.35;9.150001;;;;;;;0.54;100;95120.67;;;;
2021/03/19 00:12:58;;;;;;;16.6;9.399999;;;;;;;0.49;100;95118.53;;;;
2021/03/19 00:14:02;;;;;;;16.6;9.399999;;;;;;;0.49;100;95118.53;;;;
2021/03/19 00:15:04;;;;;;;16.6;9.399999;;;;;;;0.49;100;95118.53;;;;
2021/03/19 00:16:07;;;;;;;16.6;9.399999;;;;;;;0.49;100;95118.53;;;;
2021/03/19 00:17:08;;;;;;;16.6;9.399999;;;;;;;0.49;100;95118.53;;;;
2021/03/19 00:18:08;;;;;;;16.6;9.399999;;;;;;;0.49;100;95118.53;;;;
2021/03/19 00:19:09;;;;;;;16.6;9.399999;;;;;;;0.49;100;95118.53;;;;
2021/03/19 00:20:10;;;;;;;16.6;9.399999;;;;;;;0.49;100;95118.53;;;;
2021/03/19 00:21:12;;;;;;;16.6;9.399999;;;;;;;0.49;100;95118.53;;;;
2021/03/19 00:22:13;;;;;;;16.6;9.399999;;;;;;;0.49;100;95118.53;;;;
2021/03/19 00:23:14;;;;;;;16.6;9.399999;;;;;;;0.49;100;95118.53;;;;
2021/03/19 00:24:15;;;;;;;15.2;10;;;;;;;0.51;100;95114.29;;;;
2021/03/19 00:25:15;;;;;;;15.2;10;;;;;;;0.51;100;95114.29;;;;
2021/03/19 00:26:16;;;;;;;15.2;10;;;;;;;0.51;100;95114.29;;;;
2021/03/19 00:27:17;;;;;;;15.2;10;;;;;;;0.51;100;95114.29;;;;
2021/03/19 00:28:18;;;;;;;15.2;10;;;;;;;0.51;100;95114.29;;;;
2021/03/19 00:29:18;;;;;;;15.2;10;;;;;;;0.51;100;95114.29;;;;
2021/03/19 00:30:19;;;;;;;15.2;10;;;;;;;0.51;100;95114.29;;;;
2021/03/19 00:31:22;;;;;;;15.2;10;;;;;;;0.51;100;95114.29;;;;
2021/03/19 00:32:23;;;;;;;15.2;10;;;;;;;0.51;100;95114.29;;;;
2021/03/19 00:33:23;;;;;;;15.2;10;;;;;;;0.51;100;95114.29;;;;
2021/03/19 00:34:24;;;;;;;16.65;10.95;;;;;;;0.48;100;95106.28;;;;
2021/03/19 00:35:24;;;;;;;16.65;10.95;;;;;;;0.48;100;95106.28;;;;
2021/03/19 00:36:25;;;;;;;16.65;10.95;;;;;;;0.48;100;95106.28;;;;
2021/03/19 00:37:26;;;;;;;16.65;10.95;;;;;;;0.48;100;95106.28;;;;
2021/03/19 00:38:26;;;;;;;16.65;10.95;;;;;;;0.48;100;95106.28;;;;
2021/03/19 00:39:27;;;;;;;16.65;10.95;;;;;;;0.48;100;95106.28;;;;
2021/03/19 00:40:28;;;;;;;16.65;10.95;;;;;;;0.48;100;95106.28;;;;
2021/03/19 00:41:29;;;;;;;16.65;10.95;;;;;;;0.48;100;95106.28;;;;
2021/03/19 00:42:29;;;;;;;16.65;10.95;;;;;;;0.48;100;95106.28;;;;
2021/03/19 00:43:30;;;;;;;16.65;10.95;;;;;;;0.48;100;95106.28;;;;
2021/03/19 00:44:30;;;;;;;16.65;10.95;;;;;;;0.48;100;95106.28;;;;
2021/03/19 00:45:31;;;;;;;18.7;10.45;;;;;;;0.47;100;95103.8;;;;
2021/03/19 00:46:32;;;;;;;18.7;10.45;;;;;;;0.47;100;95103.8;;;;
2021/03/19 00:47:32;;;;;;;18.7;10.45;;;;;;;0.47;100;95103.8;;;;
2021/03/19 00:48:33;;;;;;;18.7;10.45;;;;;;;0.47;100;95103.8;;;;
2021/03/19 00:49:34;;;;;;;18.7;10.45;;;;;;;0.47;100;95103.8;;;;
2021/03/19 00:50:36;;;;;;;18.7;10.45;;;;;;;0.47;100;95103.8;;;;
2021/03/19 00:51:39;;;;;;;18.7;10.45;;;;;;;0.47;100;95103.8;;;;
2021/03/19 00:52:40;;;;;;;18.7;10.45;;;;;;;0.47;100;95103.8;;;;
2021/03/19 00:53:41;;;;;;;18.7;10.45;;;;;;;0.47;100;95103.8;;;;
2021/03/19 00:54:41;;;;;;;18.7;10.45;;;;;;;0.47;100;95103.8;;;;
2021/03/19 00:55:42;;;;;;;17.1;10.55;;;;;;;0.48;100;95096.56;;;;
2021/03/19 00:56:42;;;;;;;17.1;10.55;;;;;;;0.48;100;95096.56;;;;
2021/03/19 00:57:43;;;;;;;17.1;10.55;;;;;;;0.48;100;95096.56;;;;
2021/03/19 00:58:43;;;;;;;17.1;10.55;;;;;;;0.48;100;95096.56;;;;
2021/03/19 00:59:44;;;;;;;17.1;10.55;;;;;;;0.48;100;95096.56;;;;
2021/03/19 01:00:44;;;;;;;17.1;10.55;;;;;;;0.48;100;95096.56;;;;
2021/03/19 01:01:45;;;;;;;17.1;10.55;;;;;;;0.48;100;95096.56;;;;
2021/03/19 01:02:46;;;;;;;17.1;10.55;;;;;;;0.48;100;95096.56;;;;
2021/03/19 01:03:47;;;;;;;17.1;10.55;;;;;;;0.48;100;95096.56;;;;
2021/03/19 01:04:47;;;;;;;17.1;10.55;;;;;;;0.48;100;95096.56;;;;
2021/03/19 01:05:48;;;;;;;17.1;10.55;;;;;;;0.48;100;95096.56;;;;
2021/03/19 01:06:48;;;;;;;17.85;10.9;;;;;;;0.47;100;95086.55;;;;
2021/03/19 01:07:49;;;;;;;17.85;10.9;;;;;;;0.47;100;95086.55;;;;
2021/03/19 01:08:50;;;;;;;17.85;10.9;;;;;;;0.47;100;95086.55;;;;
2021/03/19 01:09:51;;;;;;;17.85;10.9;;;;;;;0.47;100;95086.55;;;;
2021/03/19 01:10:51;;;;;;;17.85;10.9;;;;;;;0.47;100;95086.55;;;;
2021/03/19 01:11:55;;;;;;;17.85;10.9;;;;;;;0.47;100;95086.55;;;;
2021/03/19 01:12:55;;;;;;;17.85;10.9;;;;;;;0.47;100;95086.55;;;;
2021/03/19 01:13:57;;;;;;;17.85;10.9;;;;;;;0.47;100;95086.55;;;;
2021/03/19 01:14:58;;;;;;;17.85;10.9;;;;;;;0.47;100;95086.55;;;;
2021/03/19 01:15:58;;;;;;;17.85;10.9;;;;;;;0.47;100;95086.55;;;;
2021/03/19 01:16:59;;;;;;;19;11.1;;;;;;;0.47;100;95085.22;;;;
2021/03/19 01:18:00;;;;;;;19;11.1;;;;;;;0.47;100;95085.22;;;;
2021/03/19 01:19:01;;;;;;;19;11.1;;;;;;;0.47;100;95085.22;;;;
2021/03/19 01:20:01;;;;;;;19;11.1;;;;;;;0.47;100;95085.22;;;;
2021/03/19 01:21:07;;;;;;;19;11.1;;;;;;;0.47;100;95085.22;;;;
2021/03/19 01:22:08;;;;;;;19;11.1;;;;;;;0.47;100;95085.22;;;;
2021/03/19 01:23:09;;;;;;;19;11.1;;;;;;;0.47;100;95085.22;;;;
2021/03/19 01:24:10;;;;;;;19;11.1;;;;;;;0.47;100;95085.22;;;;
2021/03/19 01:25:11;;;;;;;19;11.1;;;;;;;0.47;100;95085.22;;;;
2021/03/19 01:26:15;;;;;;;19;11.1;;;;;;;0.47;100;95085.22;;;;
2021/03/19 01:27:16;;;;;;;19;11.1;;;;;;;0.47;100;95085.22;;;;
2021/03/19 01:28:17;;;;;;;17.7;10.25;;;;;;;0.52;100;95076.2;;;;
2021/03/19 01:29:18;;;;;;;17.7;10.25;;;;;;;0.52;100;95076.2;;;;
2021/03/19 01:30:19;;;;;;;17.7;10.25;;;;;;;0.52;100;95076.2;;;;
2021/03/19 01:31:22;;;;;;;17.7;10.25;;;;;;;0.52;100;95076.2;;;;
2021/03/19 01:32:23;;;;;;;17.7;10.25;;;;;;;0.52;100;95076.2;;;;
2021/03/19 01:33:24;;;;;;;17.7;10.25;;;;;;;0.52;100;95076.2;;;;
2021/03/19 01:34:24;;;;;;;17.7;10.25;;;;;;;0.52;100;95076.2;;;;
2021/03/19 01:35:25;;;;;;;17.7;10.25;;;;;;;0.52;100;95076.2;;;;
2021/03/19 01:36:28;;;;;;;17.7;10.25;;;;;;;0.52;100;95076.2;;;;
2021/03/19 01:37:29;;;;;;;17.7;10.25;;;;;;;0.52;100;95076.2;;;;
2021/03/19 01:38:31;;;;;;;18.55;11.1;;;;;;;0.54;100;95066.23;;;;
2021/03/19 01:39:32;;;;;;;18.55;11.1;;;;;;;0.54;100;95066.23;;;;
2021/03/19 01:40:33;;;;;;;18.55;11.1;;;;;;;0.54;100;95066.23;;;;
2021/03/19 01:41:36;;;;;;;18.55;11.1;;;;;;;0.54;100;95066.23;;;;
2021/03/19 01:42:38;;;;;;;18.55;11.1;;;;;;;0.54;100;95066.23;;;;
2021/03/19 01:43:39;;;;;;;18.55;11.1;;;;;;;0.54;100;95066.23;;;;
2021/03/19 01:44:41;;;;;;;18.55;11.1;;;;;;;0.54;100;95066.23;;;;
2021/03/19 01:50:00;;;;;;;18.7;11.2;;;;;;;0.5;100;95047.67;;;;
2021/03/19 01:59:23;;;;;;;18.7;11.2;;;;;;;0.5;100;95047.67;;;;
2021/03/19 02:08:46;;;;;;;19.05;10.9;;;;;;;0.35;100;95047.63;;;;
2021/03/19 02:18:09;;;;;;;20.55;11.15;;;;;;;-0.01;100;95035.5;;;;
2021/03/19 02:27:33;;;;;;;21.05;11.25;;;;;;;-0.05;100;95039.99;;;;
2021/03/19 02:32:52;;;;;;;19.95;11.05;;;;;;;-0.07;100;95037.11;;;;
2021/03/19 02:33:53;;;;;;;19.95;11.05;;;;;;;-0.07;100;95037.11;;;;
2021/03/19 02:34:57;;;;;;;19.95;11.05;;;;;;;-0.07;100;95037.11;;;;
2021/03/19 02:36:00;;;;;;;19.95;11.05;;;;;;;-0.07;100;95037.11;;;;
2021/03/19 02:37:01;;;;;;;19.95;11.05;;;;;;;-0.07;100;95037.11;;;;
2021/03/19 02:38:02;;;;;;;19.95;11.05;;;;;;;-0.07;100;95037.11;;;;
2021/03/19 02:39:03;;;;;;;19.95;11.05;;;;;;;-0.07;100;95037.11;;;;
2021/03/19 02:40:03;;;;;;;19.95;11.05;;;;;;;-0.07;100;95037.11;;;;
2021/03/19 02:41:09;;;;;;;19.95;11.05;;;;;;;-0.07;100;95037.11;;;;
2021/03/19 02:42:10;;;;;;;20.55;11.05;;;;;;;-0.21;100;95029.92;;;;
2021/03/19 02:43:13;;;;;;;20.55;11.05;;;;;;;-0.21;100;95029.92;;;;
2021/03/19 02:44:13;;;;;;;20.55;11.05;;;;;;;-0.21;100;95029.92;;;;
2021/03/19 02:45:14;;;;;;;20.55;11.05;;;;;;;-0.21;100;95029.92;;;;
2021/03/19 02:46:19;;;;;;;20.55;11.05;;;;;;;-0.21;100;95029.92;;;;
2021/03/19 02:47:20;;;;;;;20.55;11.05;;;;;;;-0.21;100;95029.92;;;;
2021/03/19 02:48:21;;;;;;;20.55;11.05;;;;;;;-0.21;100;95029.92;;;;
2021/03/19 02:49:22;;;;;;;20.55;11.05;;;;;;;-0.21;100;95029.92;;;;
2021/03/19 02:50:23;;;;;;;20.55;11.05;;;;;;;-0.21;100;95029.92;;;;
2021/03/19 02:51:23;;;;;;;20.55;11.05;;;;;;;-0.21;100;95029.92;;;;
2021/03/19 02:52:24;;;;;;;20.55;11.05;;;;;;;-0.21;100;95029.92;;;;
2021/03/19 02:53:27;;;;;;;19.8;10.6;;;;;;;-0.28;100;95036.02;;;;
2021/03/19 02:54:31;;;;;;;19.8;10.6;;;;;;;-0.28;100;95036.02;;;;
2021/03/19 02:55:31;;;;;;;19.8;10.6;;;;;;;-0.28;100;95036.02;;;;
2021/03/19 02:56:32;;;;;;;19.8;10.6;;;;;;;-0.28;100;95036.02;;;;
2021/03/19 02:57:32;;;;;;;19.8;10.6;;;;;;;-0.28;100;95036.02;;;;
2021/03/19 02:58:33;;;;;;;19.8;10.6;;;;;;;-0.28;100;95036.02;;;;
2021/03/19 02:59:34;;;;;;;19.8;10.6;;;;;;;-0.28;100;95036.02;;;;
2021/03/19 03:00:35;;;;;;;19.8;10.6;;;;;;;-0.28;100;95036.02;;;;
2021/03/19 03:01:36;;;;;;;19.8;10.6;;;;;;;-0.28;100;95036.02;;;;
2021/03/19 03:02:36;;;;;;;19.8;10.6;;;;;;;-0.28;100;95036.02;;;;
2021/03/19 03:03:37;;;;;;;19.6;9.65;;;;;;;-0.56;100;95033.56;;;;
2021/03/19 03:04:38;;;;;;;19.6;9.65;;;;;;;-0.56;100;95033.56;;;;
2021/03/19 03:05:38;;;;;;;19.6;9.65;;;;;;;-0.56;100;95033.56;;;;
2021/03/19 03:06:39;;;;;;;19.6;9.65;;;;;;;-0.56;100;95033.56;;;;
2021/03/19 03:07:43;;;;;;;19.6;9.65;;;;;;;-0.56;100;95033.56;;;;
2021/03/19 03:08:45;;;;;;;19.6;9.65;;;;;;;-0.56;100;95033.56;;;;
2021/03/19 03:09:45;;;;;;;19.6;9.65;;;;;;;-0.56;100;95033.56;;;;
2021/03/19 03:10:46;;;;;;;19.6;9.65;;;;;;;-0.56;100;95033.56;;;;
2021/03/19 03:11:49;;;;;;;19.6;9.65;;;;;;;-0.56;100;95033.56;;;;
2021/03/19 03:12:50;;;;;;;19.6;9.65;;;;;;;-0.56;100;95033.56;;;;
2021/03/19 03:13:50;;;;;;;19.6;9.65;;;;;;;-0.56;100;95033.56;;;;
2021/03/19 03:14:51;;;;;;;20.35;10.55;;;;;;;-0.98;100;95043.28;;;;
2021/03/19 03:15:52;;;;;;;20.35;10.55;;;;;;;-0.98;100;95043.28;;;;
2021/03/19 03:16:52;;;;;;;20.35;10.55;;;;;;;-0.98;100;95043.28;;;;
2021/03/19 03:17:57;;;;;;;20.35;10.55;;;;;;;-0.98;100;95043.28;;;;
2021/03/19 03:18:58;;;;;;;20.35;10.55;;;;;;;-0.98;100;95043.28;;;;
2021/03/19 03:19:58;;;;;;;20.35;10.55;;;;;;;-0.98;100;95043.28;;;;
2021/03/19 03:20:59;;;;;;;20.35;10.55;;;;;;;-0.98;100;95043.28;;;;
2021/03/19 03:22:01;;;;;;;20.35;10.55;;;;;;;-0.98;100;95043.28;;;;
2021/03/19 03:23:02;;;;;;;20.35;10.55;;;;;;;-0.98;100;95043.28;;;;
2021/03/19 03:24:05;;;;;;;20.35;10.55;;;;;;;-0.98;100;95043.28;;;;
2021/03/19 03:25:07;;;;;;;22.1;11.25;;;;;;;-1.2;100;95045.26;;;;
2021/03/19 03:26:09;;;;;;;22.1;11.25;;;;;;;-1.2;100;95045.26;;;;
2021/03/19 03:27:10;;;;;;;22.1;11.25;;;;;;;-1.2;100;95045.26;;;;
2021/03/19 03:28:11;;;;;;;22.1;11.25;;;;;;;-1.2;100;95045.26;;;;
2021/03/19 03:29:13;;;;;;;22.1;11.25;;;;;;;-1.2;100;95045.26;;;;
2021/03/19 03:30:14;;;;;;;22.1;11.25;;;;;;;-1.2;100;95045.26;;;;
2021/03/19 03:31:21;;;;;;;22.1;11.25;;;;;;;-1.2;100;95045.26;;;;
2021/03/19 03:32:21;;;;;;;22.1;11.25;;;;;;;-1.2;100;95045.26;;;;
2021/03/19 03:33:22;;;;;;;22.1;11.25;;;;;;;-1.2;100;95045.26;;;;
2021/03/19 03:34:23;;;;;;;22.1;11.25;;;;;;;-1.2;100;95045.26;;;;
2021/03/19 03:35:24;;;;;;;22.1;11.25;;;;;;;-1.2;100;95045.26;;;;
2021/03/19 03:36:26;;;;;;;22;11.6;;;;;;;-1.01;100;95041.89;;;;
2021/03/19 03:37:27;;;;;;;22;11.6;;;;;;;-1.01;100;95041.89;;;;
2021/03/19 03:38:28;;;;;;;22;11.6;;;;;;;-1.01;100;95041.89;;;;
2021/03/19 03:39:29;;;;;;;22;11.6;;;;;;;-1.01;100;95041.89;;;;
2021/03/19 03:40:31;;;;;;;22;11.6;;;;;;;-1.01;100;95041.89;;;;
2021/03/19 03:41:37;;;;;;;22;11.6;;;;;;;-1.01;100;95041.89;;;;
2021/03/19 03:42:39;;;;;;;22;11.6;;;;;;;-1.01;100;95041.89;;;;
2021/03/19 03:43:39;;;;;;;22;11.6;;;;;;;-1.01;100;95041.89;;;;
2021/03/19 03:44:40;;;;;;;22;11.6;;;;;;;-1.01;100;95041.89;;;;
2021/03/19 03:45:41;;;;;;;22;11.6;;;;;;;-1.01;100;95041.89;;;;
2021/03/19 03:46:44;;;;;;;21.35;11.3;;;;;;;-0.83;100;95019.45;;;;
2021/03/19 03:47:45;;;;;;;21.35;11.3;;;;;;;-0.83;100;95019.45;;;;
2021/03/19 03:48:46;;;;;;;21.35;11.3;;;;;;;-0.83;100;95019.45;;;;
2021/03/19 03:49:47;;;;;;;21.35;11.3;;;;;;;-0.83;100;95019.45;;;;
2021/03/19 03:50:48;;;;;;;21.35;11.3;;;;;;;-0.83;100;95019.45;;;;
2021/03/19 03:51:49;;;;;;;21.35;11.3;;;;;;;-0.83;100;95019.45;;;;
2021/03/19 03:52:50;;;;;;;21.35;11.3;;;;;;;-0.83;100;95019.45;;;;
2021/03/19 03:53:51;;;;;;;21.35;11.3;;;;;;;-0.83;100;95019.45;;;;
2021/03/19 03:54:52;;;;;;;21.35;11.3;;;;;;;-0.83;100;95019.45;;;;
2021/03/19 03:55:52;;;;;;;21.35;11.3;;;;;;;-0.83;100;95019.45;;;;
2021/03/19 03:56:53;;;;;;;20.55;10.55;;;;;;;-0.59;100;95007.87;;;;
2021/03/19 03:57:54;;;;;;;20.55;10.55;;;;;;;-0.59;100;95007.87;;;;
2021/03/19 03:58:54;;;;;;;20.55;10.55;;;;;;;-0.59;100;95007.87;;;;
2021/03/19 03:59:55;;;;;;;20.55;10.55;;;;;;;-0.59;100;95007.87;;;;
2021/03/19 04:00:56;;;;;;;20.55;10.55;;;;;;;-0.59;100;95007.87;;;;
2021/03/19 04:01:57;;;;;;;20.55;10.55;;;;;;;-0.59;100;95007.87;;;;
2021/03/19 04:02:58;;;;;;;20.55;10.55;;;;;;;-0.59;100;95007.87;;;;
2021/03/19 04:03:59;;;;;;;20.55;10.55;;;;;;;-0.59;100;95007.87;;;;
2021/03/19 04:05:00;;;;;;;20.55;10.55;;;;;;;-0.59;100;95007.87;;;;
2021/03/19 04:06:00;;;;;;;20.55;10.55;;;;;;;-0.59;100;95007.87;;;;
2021/03/19 04:07:02;;;;;;;20.55;10.55;;;;;;;-0.59;100;95007.87;;;;
2021/03/19 04:08:03;;;;;;;18.3;10.15;;;;;;;-0.48;100;95015.01;;;;
2021/03/19 04:09:04;;;;;;;18.3;10.15;;;;;;;-0.48;100;95015.01;;;;
2021/03/19 04:10:05;;;;;;;18.3;10.15;;;;;;;-0.48;100;95015.01;;;;
2021/03/19 04:11:07;;;;;;;18.3;10.15;;;;;;;-0.48;100;95015.01;;;;
2021/03/19 04:12:09;;;;;;;18.3;10.15;;;;;;;-0.48;100;95015.01;;;;
2021/03/19 04:13:11;;;;;;;18.3;10.15;;;;;;;-0.48;100;95015.01;;;;
2021/03/19 04:14:12;;;;;;;18.3;10.15;;;;;;;-0.48;100;95015.01;;;;
2021/03/19 04:15:13;;;;;;;18.3;10.15;;;;;;;-0.48;100;95015.01;;;;
2021/03/19 04:16:15;;;;;;;18.3;10.15;;;;;;;-0.48;100;95015.01;;;;
2021/03/19 04:17:16;;;;;;;18.3;10.15;;;;;;;-0.48;100;95015.01;;;;
2021/03/19 04:18:24;;;;;;;20.45;9.900002;;;;;;;-0.41;100;95014.14;;;;
2021/03/19 04:19:26;;;;;;;20.45;9.900002;;;;;;;-0.41;100;95014.14;;;;
2021/03/19 04:20:27;;;;;;;20.45;9.900002;;;;;;;-0.41;100;95014.14;;;;
2021/03/19 04:21:28;;;;;;;20.45;9.900002;;;;;;;-0.41;100;95014.14;;;;
2021/03/19 04:22:29;;;;;;;20.45;9.900002;;;;;;;-0.41;100;95014.14;;;;
2021/03/19 04:23:30;;;;;;;20.45;9.900002;;;;;;;-0.41;100;95014.14;;;;
2021/03/19 04:24:32;;;;;;;20.45;9.900002;;;;;;;-0.41;100;95014.14;;;;
2021/03/19 04:25:32;;;;;;;20.45;9.900002;;;;;;;-0.41;100;95014.14;;;;
2021/03/19 04:26:33;;;;;;;20.45;9.900002;;;;;;;-0.41;100;95014.14;;;;
2021/03/19 04:27:35;;;;;;;20.45;9.900002;;;;;;;-0.41;100;95014.14;;;;
2021/03/19 04:28:42;;;;;;;20.45;9.900002;;;;;;;-0.41;100;95014.14;;;;
2021/03/19 04:29:42;;;;;;;18.25;9.500002;;;;;;;-0.28;100;95015.3;;;;
2021/03/19 04:30:43;;;;;;;18.25;9.500002;;;;;;;-0.28;100;95015.3;;;;
2021/03/19 04:31:44;;;;;;;18.25;9.500002;;;;;;;-0.28;100;95015.3;;;;
2021/03/19 04:32:45;;;;;;;18.25;9.500002;;;;;;;-0.28;100;95015.3;;;;
2021/03/19 04:33:46;;;;;;;18.25;9.500002;;;;;;;-0.28;100;95015.3;;;;
2021/03/19 04:34:47;;;;;;;18.25;9.500002;;;;;;;-0.28;100;95015.3;;;;
2021/03/19 04:35:48;;;;;;;18.25;9.500002;;;;;;;-0.28;100;95015.3;;;;
2021/03/19 04:36:56;;;;;;;18.25;9.500002;;;;;;;-0.28;100;95015.3;;;;
2021/03/19 04:37:58;;;;;;;18.25;9.500002;;;;;;;-0.28;100;95015.3;;;;
2021/03/19 04:39:04;;;;;;;18.25;9.500002;;;;;;;-0.28;100;95015.3;;;;
2021/03/19 04:40:07;;;;;;;16.2;8.6;;;;;;;-0.18;100;95020.79;;;;
2021/03/19 04:41:09;;;;;;;16.2;8.6;;;;;;;-0.18;100;95020.79;;;;
2021/03/19 04:42:12;;;;;;;16.2;8.6;;;;;;;-0.18;100;95020.79;;;;
2021/03/19 04:43:13;;;;;;;16.2;8.6;;;;;;;-0.18;100;95020.79;;;;
2021/03/19 04:44:15;;;;;;;16.2;8.6;;;;;;;-0.18;100;95020.79;;;;
2021/03/19 04:45:16;;;;;;;16.2;8.6;;;;;;;-0.18;100;95020.79;;;;
2021/03/19 04:46:17;;;;;;;16.2;8.6;;;;;;;-0.18;100;95020.79;;;;
2021/03/19 04:47:18;;;;;;;16.2;8.6;;;;;;;-0.18;100;95020.79;;;;
2021/03/19 04:48:18;;;;;;;16.2;8.6;;;;;;;-0.18;100;95020.79;;;;
2021/03/19 04:49:19;;;;;;;16.2;8.6;;;;;;;-0.18;100;95020.79;;;;
2021/03/19 04:50:20;;;;;;;16.4;9.5;;;;;;;-0.1;100;95026.86;;;;
2021/03/19 04:51:22;;;;;;;16.4;9.5;;;;;;;-0.1;100;95026.86;;;;
2021/03/19 04:52:22;;;;;;;16.4;9.5;;;;;;;-0.1;100;95026.86;;;;
2021/03/19 04:53:23;;;;;;;16.4;9.5;;;;;;;-0.1;100;95026.86;;;;
2021/03/19 04:54:23;;;;;;;16.4;9.5;;;;;;;-0.1;100;95026.86;;;;
2021/03/19 04:55:24;;;;;;;16.4;9.5;;;;;;;-0.1;100;95026.86;;;;
2021/03/19 04:56:25;;;;;;;16.4;9.5;;;;;;;-0.1;100;95026.86;;;;
2021/03/19 04:57:25;;;;;;;16.4;9.5;;;;;;;-0.1;100;95026.86;;;;
2021/03/19 04:58:26;;;;;;;16.4;9.5;;;;;;;-0.1;100;95026.86;;;;
2021/03/19 04:59:26;;;;;;;16.4;9.5;;;;;;;-0.1;100;95026.86;;;;
2021/03/19 05:00:27;;;;;;;16.4;9.5;;;;;;;-0.1;100;95026.86;;;;
2021/03/19 05:01:28;;;;;;;16.25;8.949999;;;;;;;-0.03;100;95028.7;;;;
2021/03/19 05:02:29;;;;;;;16.25;8.949999;;;;;;;-0.03;100;95028.7;;;;
2021/03/19 05:03:32;;;;;;;16.25;8.949999;;;;;;;-0.03;100;95028.7;;;;
2021/03/19 05:04:33;;;;;;;16.25;8.949999;;;;;;;-0.03;100;95028.7;;;;
2021/03/19 05:05:34;;;;;;;16.25;8.949999;;;;;;;-0.03;100;95028.7;;;;
2021/03/19 05:06:34;;;;;;;16.25;8.949999;;;;;;;-0.03;100;95028.7;;;;
2021/03/19 05:07:35;;;;;;;16.25;8.949999;;;;;;;-0.03;100;95028.7;;;;
2021/03/19 05:08:35;;;;;;;16.25;8.949999;;;;;;;-0.03;100;95028.7;;;;
2021/03/19 05:09:36;;;;;;;16.25;8.949999;;;;;;;-0.03;100;95028.7;;;;
2021/03/19 05:10:37;;;;;;;16.25;8.949999;;;;;;;-0.03;100;95028.7;;;;
2021/03/19 05:11:37;;;;;;;18.1;9;;;;;;;0;100;95029.17;;;;
2021/03/19 05:12:38;;;;;;;18.1;9;;;;;;;0;100;95029.17;;;;
2021/03/19 05:13:39;;;;;;;18.1;9;;;;;;;0;100;95029.17;;;;
2021/03/19 05:14:41;;;;;;;18.1;9;;;;;;;0;100;95029.17;;;;
2021/03/19 05:15:42;;;;;;;18.1;9;;;;;;;0;100;95029.17;;;;
2021/03/19 05:16:43;;;;;;;18.1;9;;;;;;;0;100;95029.17;;;;
2021/03/19 05:17:43;;;;;;;18.1;9;;;;;;;0;100;95029.17;;;;
2021/03/19 05:18:44;;;;;;;18.1;9;;;;;;;0;100;95029.17;;;;
2021/03/19 05:19:45;;;;;;;18.1;9;;;;;;;0;100;95029.17;;;;
2021/03/19 05:20:45;;;;;;;18.1;9;;;;;;;0;100;95029.17;;;;
2021/03/19 05:21:46;;;;;;;18.1;9;;;;;;;0;100;95029.17;;;;
2021/03/19 05:22:47;;;;;;;16.25;9.299999;;;;;;;0.02;100;95036.56;;;;
2021/03/19 05:23:48;;;;;;;16.25;9.299999;;;;;;;0.02;100;95036.56;;;;
2021/03/19 05:24:48;;;;;;;16.25;9.299999;;;;;;;0.02;100;95036.56;;;;
2021/03/19 05:25:49;;;;;;;16.25;9.299999;;;;;;;0.02;100;95036.56;;;;
2021/03/19 05:26:50;;;;;;;16.25;9.299999;;;;;;;0.02;100;95036.56;;;;
2021/03/19 05:27:52;;;;;;;16.25;9.299999;;;;;;;0.02;100;95036.56;;;;
2021/03/19 05:28:53;;;;;;;16.25;9.299999;;;;;;;0.02;100;95036.56;;;;
2021/03/19 05:29:55;;;;;;;16.25;9.299999;;;;;;;0.02;100;95036.56;;;;
2021/03/19 05:30:55;;;;;;;16.25;9.299999;;;;;;;0.02;100;95036.56;;;;
2021/03/19 05:31:56;;;;;;;16.25;9.299999;;;;;;;0.02;100;95036.56;;;;
2021/03/19 05:32:57;;;;;;;18.45;9.9;;;;;;;0.04;100;95043.81;;;;
2021/03/19 05:33:57;;;;;;;18.45;9.9;;;;;;;0.04;100;95043.81;;;;
2021/03/19 05:34:58;;;;;;;18.45;9.9;;;;;;;0.04;100;95043.81;;;;
2021/03/19 05:35:59;;;;;;;18.45;9.9;;;;;;;0.04;100;95043.81;;;;
2021/03/19 05:37:00;;;;;;;18.45;9.9;;;;;;;0.04;100;95043.81;;;;
2021/03/19 05:38:01;;;;;;;18.45;9.9;;;;;;;0.04;100;95043.81;;;;
2021/03/19 05:39:02;;;;;;;18.45;9.9;;;;;;;0.04;100;95043.81;;;;
2021/03/19 05:40:05;;;;;;;18.45;9.9;;;;;;;0.04;100;95043.81;;;;
2021/03/19 05:41:09;;;;;;;18.45;9.9;;;;;;;0.04;100;95043.81;;;;
2021/03/19 05:42:12;;;;;;;18.45;9.9;;;;;;;0.04;100;95043.81;;;;
2021/03/19 05:43:16;;;;;;;18.45;9.9;;;;;;;0.04;100;95043.81;;;;
2021/03/19 05:44:28;;;;;;;14.4;8.949999;;;;;;;0.02;100;95045.85;;;;
2021/03/19 05:45:29;;;;;;;14.4;8.949999;;;;;;;0.02;100;95045.85;;;;
2021/03/19 05:46:30;;;;;;;14.4;8.949999;;;;;;;0.02;100;95045.85;;;;
2021/03/19 05:47:34;;;;;;;14.4;8.949999;;;;;;;0.02;100;95045.85;;;;
2021/03/19 05:48:35;;;;;;;14.4;8.949999;;;;;;;0.02;100;95045.85;;;;
2021/03/19 05:49:43;;;;;;;14.4;8.949999;;;;;;;0.02;100;95045.85;;;;
2021/03/19 05:50:44;;;;;;;14.4;8.949999;;;;;;;0.02;100;95045.85;;;;
2021/03/19 05:51:46;;;;;;;14.4;8.949999;;;;;;;0.02;100;95045.85;;;;
2021/03/19 05:52:49;;;;;;;14.4;8.949999;;;;;;;0.02;100;95045.85;;;;
2021/03/19 05:53:50;;;;;;;14.4;8.949999;;;;;;;0.02;100;95045.85;;;;
2021/03/19 05:54:55;;;;;;;15.3;9.4;;;;;;;0.15;100;95054.93;;;;
2021/03/19 05:55:56;;;;;;;15.3;9.4;;;;;;;0.15;100;95054.93;;;;
2021/03/19 05:56:56;;;;;;;15.3;9.4;;;;;;;0.15;100;95054.93;;;;
2021/03/19 05:58:15;;;;;;;15.3;9.4;;;;;;;0.15;100;95054.93;;;;
2021/03/19 05:59:26;;;;;;;15.3;9.4;;;;;;;0.15;100;95054.93;;;;
2021/03/19 06:00:27;;;;;;;15.3;9.4;;;;;;;0.15;100;95054.93;;;;
2021/03/19 06:01:28;;;;;;;15.3;9.4;;;;;;;0.15;100;95054.93;;;;
2021/03/19 06:02:29;;;;;;;15.3;9.4;;;;;;;0.15;100;95054.93;;;;
2021/03/19 06:03:32;;;;;;;15.3;9.4;;;;;;;0.15;100;95054.93;;;;
2021/03/19 06:04:32;;;;;;;15.3;9.4;;;;;;;0.15;100;95054.93;;;;
2021/03/19 06:05:33;;;;;;;18.05;9.399999;;;;;;;0.32;100;95062.61;;;;
2021/03/19 06:06:55;;;;;;;18.05;9.399999;;;;;;;0.32;100;95062.61;;;;
2021/03/19 06:07:58;;;;;;;18.05;9.399999;;;;;;;0.32;100;95062.61;;;;
2021/03/19 06:09:00;;;;;;;18.05;9.399999;;;;;;;0.32;100;95062.61;;;;
2021/03/19 06:10:22;;;;;;;18.05;9.399999;;;;;;;0.32;100;95062.61;;;;
2021/03/19 06:11:28;;;;;;;18.05;9.399999;;;;;;;0.32;100;95062.61;;;;
2021/03/19 06:12:28;;;;;;;18.05;9.399999;;;;;;;0.32;100;95062.61;;;;
2021/03/19 06:13:29;;;;;;;18.05;9.399999;;;;;;;0.32;100;95062.61;;;;
2021/03/19 06:14:42;;;;;;;18.05;9.399999;;;;;;;0.32;100;95062.61;;;;
2021/03/19 06:15:47;;;;;;;16.7;9.200001;;;;;;;0.44;100;95065.64;;;;
2021/03/19 06:16:50;;;;;;;16.7;9.200001;;;;;;;0.44;100;95065.64;;;;
2021/03/19 06:17:56;;;;;;;16.7;9.200001;;;;;;;0.44;100;95065.64;;;;
2021/03/19 06:19:00;;;;;;;16.7;9.200001;;;;;;;0.44;100;95065.64;;;;
2021/03/19 06:20:05;;;;;;;16.7;9.200001;;;;;;;0.44;100;95065.64;;;;
2021/03/19 06:21:10;;;;;;;16.7;9.200001;;;;;;;0.44;100;95065.64;;;;
2021/03/19 06:22:20;;;;;;;16.7;9.200001;;;;;;;0.44;100;95065.64;;;;
2021/03/19 06:23:35;;;;;;;16.7;9.200001;;;;;;;0.44;100;95065.64;;;;
2021/03/19 06:24:37;;;;;;;16.7;9.200001;;;;;;;0.44;100;95065.64;;;;
2021/03/19 06:25:38;;;;;;;16.7;9.200001;;;;;;;0.44;100;95065.64;;;;
2021/03/19 06:26:42;;;;;;;16.8;9.149999;;;;;;;0.59;100;95072.24;;;;
2021/03/19 06:27:43;;;;;;;16.8;9.149999;;;;;;;0.59;100;95072.24;;;;
2021/03/19 06:28:51;;;;;;;16.8;9.149999;;;;;;;0.59;100;95072.24;;;;
2021/03/19 06:30:05;;;;;;;16.8;9.149999;;;;;;;0.59;100;95072.24;;;;
2021/03/19 06:31:14;;;;;;;16.8;9.149999;;;;;;;0.59;100;95072.24;;;;
2021/03/19 06:32:21;;;;;;;16.8;9.149999;;;;;;;0.59;100;95072.24;;;;
2021/03/19 06:33:26;;;;;;;16.8;9.149999;;;;;;;0.59;100;95072.24;;;;
2021/03/19 06:34:27;;;;;;;16.8;9.149999;;;;;;;0.59;100;95072.24;;;;
2021/03/19 06:35:32;;;;;;;16.8;9.149999;;;;;;;0.59;100;95072.24;;;;
2021/03/19 06:36:34;;;;;;;16.8;9.149999;;;;;;;0.59;100;95072.24;;;;
2021/03/19 06:37:52;;;;;;;15.15;8.5;;;;;;;0.92;100;95085.5;;;;
2021/03/19 06:38:53;;;;;;;15.15;8.5;;;;;;;0.92;100;95085.5;;;;
2021/03/19 06:40:07;;;;;;;15.15;8.5;;;;;;;0.92;100;95085.5;;;;
2021/03/19 06:41:29;;;;;;;15.15;8.5;;;;;;;0.92;100;95085.5;;;;
2021/03/19 06:42:31;;;;;;;15.15;8.5;;;;;;;0.92;100;95085.5;;;;
2021/03/19 06:43:37;;;;;;;15.15;8.5;;;;;;;0.92;100;95085.5;;;;
2021/03/19 06:44:37;;;;;;;15.15;8.5;;;;;;;0.92;100;95085.5;;;;
2021/03/19 06:45:39;;;;;;;15.15;8.5;;;;;;;0.92;100;95085.5;;;;
2021/03/19 06:46:39;;;;;;;15.15;8.5;;;;;;;0.92;100;95085.5;;;;
2021/03/19 06:47:43;;;;;;;14.25;8.450001;;;;;;;1.16;100;95085.74;;;;
2021/03/19 06:48:47;;;;;;;14.25;8.450001;;;;;;;1.16;100;95085.74;;;;
2021/03/19 06:50:01;;;;;;;14.25;8.450001;;;;;;;1.16;100;95085.74;;;;
2021/03/19 06:51:03;;;;;;;14.25;8.450001;;;;;;;1.16;100;95085.74;;;;
2021/03/19 06:52:10;;;;;;;14.25;8.450001;;;;;;;1.16;100;95085.74;;;;
2021/03/19 06:53:17;;;;;;;14.25;8.450001;;;;;;;1.16;100;95085.74;;;;
2021/03/19 06:54:22;;;;;;;14.25;8.450001;;;;;;;1.16;100;95085.74;;;;
2021/03/19 06:55:26;;;;;;;14.25;8.450001;;;;;;;1.16;100;95085.74;;;;